Time;durP1;ratioP1;P1;durP2;ratioP2;P2;SDS_P1;SDS_P2;PMS_P1;PMS_P2;Temp;Humidity;BMP_temperature;BMP_pressure;BME280_temperature;BME280_humidity;BME280_pressure;Samples;Min_cycle;Max_cycle;Signal;HPM_P1;HPM_P2
2021/12/06 00:01:21;;;;;;;30.38;16.35;;;3.30;99.90;;;;;;12480741;28;20496;-38
2021/12/06 00:07:24;;;;;;;29.65;17.20;;;3.30;99.90;;;;;;12485389;28;20140;-37
2021/12/06 00:13:27;;;;;;;33.05;16.88;;;3.30;99.90;;;;;;12485963;28;20531;-39
2021/12/06 00:19:31;;;;;;;32.47;17.27;;;3.30;99.90;;;;;;12485661;28;20095;-39
2021/12/06 00:25:33;;;;;;;29.15;17.42;;;3.30;99.90;;;;;;12471226;28;21055;-38
2021/12/06 00:31:37;;;;;;;31.25;16.58;;;3.40;99.90;;;;;;12485034;28;20588;-38
2021/12/06 00:37:52;;;;;;;37.20;18.87;;;3.40;99.90;;;;;;12490073;28;20540;-38
2021/12/06 00:43:55;;;;;;;34.17;18.25;;;3.40;99.90;;;;;;12486957;28;20137;-39
2021/12/06 00:49:57;;;;;;;37.60;20.60;;;3.40;99.90;;;;;;12487310;28;20072;-39
2021/12/06 00:55:59;;;;;;;39.65;20.17;;;3.30;99.90;;;;;;12483972;28;20314;-38
2021/12/06 01:02:03;;;;;;;41.28;21.00;;;3.30;99.90;;;;;;12484282;28;20301;-39
2021/12/06 01:08:05;;;;;;;40.72;19.65;;;3.30;99.90;;;;;;12486718;28;20049;-37
2021/12/06 01:14:07;;;;;;;31.27;17.40;;;3.20;99.90;;;;;;12476331;28;20063;-38
2021/12/06 01:20:12;;;;;;;35.58;19.20;;;3.20;99.90;;;;;;12482366;28;20144;-39
2021/12/06 01:26:56;;;;;;;;;;;3.20;99.90;;;;;;12482655;28;20077;-37
2021/12/06 01:45:12;;;;;;;40.13;18.05;;;3.30;99.90;;;;;;12482351;28;20429;-38
2021/12/06 01:51:15;;;;;;;40.63;19.48;;;3.30;99.90;;;;;;12484479;28;20053;-37
2021/12/06 01:57:17;;;;;;;37.35;17.83;;;3.20;99.90;;;;;;12488681;28;20047;-39
2021/12/06 02:03:20;;;;;;;39.55;20.10;;;3.30;99.90;;;;;;12488353;28;20118;-38
2021/12/06 02:09:26;;;;;;;42.40;20.90;;;3.20;99.90;;;;;;12482284;28;20148;-38
2021/12/06 02:15:43;;;;;;;39.80;16.80;;;3.30;99.90;;;;;;12491725;28;20176;-38
2021/12/06 02:21:46;;;;;;;41.72;19.38;;;3.30;99.90;;;;;;12476204;28;20041;-39
2021/12/06 02:27:51;;;;;;;49.60;20.23;;;3.30;99.90;;;;;;12491512;28;20048;-37
2021/12/06 02:33:54;;;;;;;48.33;20.95;;;3.30;99.90;;;;;;12492269;28;20076;-39
2021/12/06 02:39:57;;;;;;;57.60;22.70;;;3.40;99.90;;;;;;12489185;28;20072;-37
2021/12/06 02:46:03;;;;;;;54.72;21.35;;;3.30;99.90;;;;;;12489888;28;20096;-38
2021/12/06 02:52:08;;;;;;;49.80;20.35;;;3.30;99.90;;;;;;12490777;28;20419;-39
2021/12/06 02:58:21;;;;;;;55.95;22.85;;;3.40;99.90;;;;;;12481499;28;20558;-38
2021/12/06 03:04:23;;;;;;;65.68;22.92;;;3.40;99.90;;;;;;12491177;28;20469;-39
2021/12/06 03:10:27;;;;;;;63.03;23.58;;;3.30;99.90;;;;;;12489428;28;20114;-37
2021/12/06 03:16:29;;;;;;;57.03;21.20;;;3.30;99.90;;;;;;12477163;28;20088;-38
2021/12/06 03:22:31;;;;;;;56.53;21.42;;;3.20;99.90;;;;;;12470563;28;20497;-39
2021/12/06 03:28:38;;;;;;;59.72;20.88;;;3.30;99.90;;;;;;12486414;28;20156;-39
2021/12/06 03:34:41;;;;;;;50.97;20.55;;;3.30;99.90;;;;;;12485813;28;20049;-38
2021/12/06 03:40:43;;;;;;;45.50;20.30;;;3.20;99.90;;;;;;12482684;28;20049;-38
2021/12/06 03:46:45;;;;;;;49.72;20.40;;;3.20;99.90;;;;;;12490061;28;20057;-39
2021/12/06 03:52:47;;;;;;;46.25;20.00;;;3.10;99.90;;;;;;12479760;28;20056;-39
2021/12/06 03:58:49;;;;;;;51.75;19.45;;;3.20;99.90;;;;;;12474995;28;20087;-39
2021/12/06 04:04:52;;;;;;;46.55;18.00;;;3.10;99.90;;;;;;12482242;28;20094;-38
2021/12/06 04:10:55;;;;;;;38.58;15.90;;;3.00;99.90;;;;;;12489742;28;20069;-39
2021/12/06 04:16:57;;;;;;;35.92;15.55;;;3.00;99.90;;;;;;12463248;28;20482;-38
2021/12/06 04:23:00;;;;;;;39.38;15.50;;;3.00;99.90;;;;;;12480234;28;20486;-38
2021/12/06 04:29:02;;;;;;;34.58;14.95;;;3.00;99.90;;;;;;12485443;28;20048;-39
2021/12/06 04:35:05;;;;;;;36.75;14.32;;;2.90;99.90;;;;;;12483595;28;20061;-39
2021/12/06 04:41:07;;;;;;;35.35;14.25;;;2.80;99.90;;;;;;12487407;28;20102;-39
2021/12/06 04:47:09;;;;;;;30.38;13.25;;;2.80;99.90;;;;;;12483679;28;20092;-39
2021/12/06 04:53:23;;;;;;;34.63;15.15;;;2.90;99.90;;;;;;12469334;28;20565;-38
2021/12/06 04:59:28;;;;;;;35.25;15.13;;;3.00;99.90;;;;;;12483224;28;20049;-39
2021/12/06 05:05:36;;;;;;;36.60;14.70;;;3.00;99.90;;;;;;12485189;28;20045;-38
2021/12/06 05:11:38;;;;;;;33.85;14.32;;;2.90;99.90;;;;;;12482685;28;20037;-39
2021/12/06 05:17:43;;;;;;;31.65;14.52;;;3.00;99.90;;;;;;12487442;28;20055;-39
2021/12/06 05:23:45;;;;;;;31.52;15.35;;;3.00;99.90;;;;;;12445619;28;20049;-37
2021/12/06 05:29:51;;;;;;;33.17;14.75;;;3.00;99.90;;;;;;12432597;28;20081;-38
2021/12/06 05:35:53;;;;;;;32.58;15.70;;;2.90;99.90;;;;;;12441704;28;20062;-37
2021/12/06 05:41:56;;;;;;;34.42;15.00;;;2.90;99.90;;;;;;12444607;28;20068;-39
2021/12/06 05:47:58;;;;;;;36.35;15.25;;;3.10;99.90;;;;;;12426312;28;20049;-38
2021/12/06 05:54:00;;;;;;;30.30;14.95;;;2.90;99.90;;;;;;12424218;28;20072;-37
2021/12/06 06:00:05;;;;;;;33.55;15.13;;;2.90;99.90;;;;;;12443622;28;20107;-39
2021/12/06 06:06:08;;;;;;;34.22;15.63;;;2.90;99.90;;;;;;12432907;28;20092;-39
2021/12/06 06:12:10;;;;;;;33.30;14.68;;;3.00;99.90;;;;;;12447252;28;20061;-39
2021/12/06 06:18:12;;;;;;;29.75;13.65;;;2.90;99.90;;;;;;12442692;28;20053;-37
2021/12/06 06:24:15;;;;;;;36.45;14.73;;;3.00;99.90;;;;;;12443404;28;20402;-38
2021/12/06 06:30:17;;;;;;;40.65;16.38;;;2.90;99.90;;;;;;12444609;28;20092;-39
2021/12/06 06:36:19;;;;;;;35.10;15.95;;;3.00;99.90;;;;;;12442132;28;20400;-39
2021/12/06 06:42:23;;;;;;;44.55;18.30;;;2.90;99.90;;;;;;12440189;28;20045;-37
2021/12/06 06:48:25;;;;;;;50.50;20.13;;;3.00;99.90;;;;;;12443398;28;20080;-37
2021/12/06 06:54:27;;;;;;;46.47;20.20;;;3.00;99.90;;;;;;12428557;28;20426;-39
2021/12/06 07:00:36;;;;;;;47.17;18.55;;;3.00;99.90;;;;;;12443248;28;20053;-39
2021/12/06 07:06:39;;;;;;;50.15;20.67;;;3.00;99.90;;;;;;12443989;28;20151;-38
2021/12/06 07:12:48;;;;;;;59.55;21.92;;;2.80;99.90;;;;;;12425262;28;20136;-38
2021/12/06 07:18:50;;;;;;;55.58;20.70;;;2.80;99.90;;;;;;12440246;28;20042;-39
2021/12/06 07:24:52;;;;;;;57.95;21.40;;;2.90;99.90;;;;;;12486487;28;20102;-39
2021/12/06 07:30:53;;;;;;;65.65;22.92;;;2.90;99.90;;;;;;12493486;28;20110;-39
2021/12/06 07:36:55;;;;;;;65.32;22.48;;;2.90;99.90;;;;;;12490994;28;20464;-38
2021/12/06 07:42:58;;;;;;;69.95;24.20;;;2.80;99.90;;;;;;12488257;28;20073;-39
2021/12/06 07:49:00;;;;;;;61.42;23.17;;;2.80;99.90;;;;;;12493290;28;20057;-40
2021/12/06 07:55:04;;;;;;;65.20;24.27;;;2.80;99.90;;;;;;12488584;28;20052;-39
2021/12/06 08:01:07;;;;;;;58.10;24.08;;;2.90;99.90;;;;;;12491106;28;20045;-39
2021/12/06 08:07:08;;;;;;;66.25;23.60;;;2.90;99.90;;;;;;12488553;28;20061;-37
2021/12/06 08:13:15;;;;;;;64.05;24.35;;;2.90;99.90;;;;;;12488245;28;20053;-38
2021/12/06 08:19:17;;;;;;;62.53;21.95;;;2.90;99.90;;;;;;12485501;28;20095;-38
2021/12/06 08:25:19;;;;;;;53.70;19.70;;;2.90;99.90;;;;;;12488412;28;20041;-39
2021/12/06 08:31:22;;;;;;;53.13;18.83;;;2.80;99.90;;;;;;12488939;28;20101;-38
2021/12/06 08:37:26;;;;;;;40.10;16.15;;;2.80;99.90;;;;;;12489941;28;20556;-38
2021/12/06 08:43:27;;;;;;;46.95;18.25;;;2.90;99.90;;;;;;12488579;28;20721;-38
2021/12/06 08:49:31;;;;;;;38.95;17.02;;;2.80;99.90;;;;;;12484954;28;20132;-38
2021/12/06 08:55:33;;;;;;;41.88;17.00;;;2.90;99.90;;;;;;12485152;28;20402;-38
2021/12/06 09:01:36;;;;;;;42.13;16.73;;;3.10;99.90;;;;;;12486482;28;20072;-39
2021/12/06 09:07:58;;;;;;;38.28;15.48;;;3.30;99.90;;;;;;12487903;28;20057;-39
2021/12/06 09:14:00;;;;;;;41.53;15.70;;;3.50;99.90;;;;;;12487452;28;20592;-39
2021/12/06 09:20:04;;;;;;;38.30;15.43;;;3.50;99.90;;;;;;12486070;28;20106;-39
2021/12/06 09:26:06;;;;;;;38.17;15.07;;;3.50;99.90;;;;;;12487965;28;20049;-38
2021/12/06 09:32:11;;;;;;;32.10;14.45;;;3.70;99.90;;;;;;12487472;28;20972;-39
2021/12/06 09:38:15;;;;;;;;;;;3.90;99.90;;;;;;12483087;28;20050;-38
2021/12/06 09:44:17;;;;;;;36.05;15.15;;;4.10;99.90;;;;;;12487559;28;20007;-39
2021/12/06 09:50:24;;;;;;;33.25;15.10;;;3.80;99.90;;;;;;12484985;28;20051;-39
2021/12/06 09:56:30;;;;;;;31.77;14.38;;;3.70;99.90;;;;;;12488111;28;20573;-38
2021/12/06 10:02:32;;;;;;;36.33;15.45;;;3.90;99.90;;;;;;12490186;28;20463;-39
2021/12/06 10:08:39;;;;;;;34.50;15.80;;;4.10;99.90;;;;;;12490820;28;20056;-38
2021/12/06 10:14:42;;;;;;;32.75;15.90;;;4.20;99.90;;;;;;12486947;28;20144;-40
2021/12/06 10:20:48;;;;;;;32.10;15.07;;;4.10;99.90;;;;;;12490093;28;20613;-38
2021/12/06 10:27:00;;;;;;;33.13;15.63;;;4.10;99.90;;;;;;12494816;28;20049;-38
2021/12/06 10:33:14;;;;;;;36.85;16.33;;;3.90;99.90;;;;;;12492175;28;20045;-38
2021/12/06 10:39:16;;;;;;;28.73;14.20;;;3.70;99.90;;;;;;12492811;28;20167;-39
2021/12/06 10:45:26;;;;;;;31.25;14.65;;;3.80;99.90;;;;;;12488208;28;20059;-38
2021/12/06 10:51:28;;;;;;;31.58;15.15;;;4.00;99.90;;;;;;12490178;28;20053;-39
2021/12/06 10:57:52;;;;;;;30.38;14.32;;;4.30;99.90;;;;;;12495485;28;20042;-38
2021/12/06 11:03:57;;;;;;;33.15;14.90;;;4.20;99.90;;;;;;12496266;28;20140;-38
2021/12/06 11:10:04;;;;;;;32.67;14.70;;;4.10;99.90;;;;;;12494013;28;20098;-39
2021/12/06 11:16:24;;;;;;;26.33;13.25;;;4.10;99.90;;;;;;12495887;28;20049;-38
2021/12/06 11:22:26;;;;;;;28.60;14.60;;;4.30;99.90;;;;;;12492464;28;20492;-38
2021/12/06 11:28:31;;;;;;;31.67;14.73;;;4.10;99.90;;;;;;12494014;28;20136;-38
2021/12/06 11:34:39;;;;;;;;;;;4.10;99.90;;;;;;12493885;28;20041;-39
2021/12/06 11:40:42;;;;;;;28.33;14.00;;;4.10;99.90;;;;;;12494478;28;19928;-39
2021/12/06 11:46:44;;;;;;;28.50;14.60;;;4.40;99.90;;;;;;12496620;28;20049;-39
2021/12/06 11:52:48;;;;;;;29.58;14.50;;;4.60;99.90;;;;;;12490104;28;20052;-38
2021/12/06 11:58:56;;;;;;;30.43;14.90;;;4.50;99.90;;;;;;12490476;28;20049;-39
2021/12/06 12:05:13;;;;;;;31.02;15.07;;;4.80;99.90;;;;;;12492589;28;20110;-39
2021/12/06 12:11:15;;;;;;;27.77;14.20;;;5.00;99.90;;;;;;12487144;28;20504;-39
2021/12/06 12:17:18;;;;;;;23.38;13.48;;;5.40;99.90;;;;;;12491225;28;20123;-39
2021/12/06 12:23:23;;;;;;;24.50;12.63;;;5.20;99.90;;;;;;12486211;28;20048;-38
2021/12/06 12:29:27;;;;;;;29.83;13.40;;;5.30;99.90;;;;;;12495774;28;20106;-39
2021/12/06 12:35:31;;;;;;;22.77;12.25;;;5.50;99.90;;;;;;12488897;28;20143;-38
2021/12/06 12:41:57;;;;;;;20.83;11.43;;;5.30;99.90;;;;;;12487463;28;20057;-39
2021/12/06 12:47:59;;;;;;;;;;;5.40;99.90;;;;;;12491113;28;20598;-38
2021/12/06 12:54:04;;;;;;;23.77;12.05;;;5.30;99.90;;;;;;12490444;28;20312;-38
2021/12/06 13:00:20;;;;;;;13.68;8.15;;;5.40;99.90;;;;;;12480956;28;20481;-39
2021/12/06 13:06:31;;;;;;;16.00;8.55;;;4.90;99.90;;;;;;12489451;28;20053;-38
2021/12/06 13:12:33;;;;;;;18.88;9.13;;;5.30;99.90;;;;;;12487602;28;20045;-40
2021/12/06 13:24:58;;;;;;;19.08;8.65;;;4.90;99.90;;;;;;12485599;28;20049;-39
2021/12/06 13:31:02;;;;;;;14.18;7.70;;;4.80;99.90;;;;;;12489262;28;20049;-39
2021/12/06 13:37:04;;;;;;;16.67;8.18;;;4.70;99.90;;;;;;12486441;28;20045;-38
2021/12/06 13:43:14;;;;;;;19.52;8.60;;;4.70;99.90;;;;;;12481577;28;20080;-38
2021/12/06 13:49:23;;;;;;;17.35;8.32;;;4.60;99.90;;;;;;12485299;28;20053;-39
2021/12/06 13:55:29;;;;;;;18.98;9.20;;;4.50;99.90;;;;;;12491090;28;20080;-39
2021/12/06 14:01:33;;;;;;;17.83;8.60;;;4.40;99.90;;;;;;12489933;28;20911;-37
2021/12/06 14:07:38;;;;;;;19.42;9.85;;;4.20;99.90;;;;;;12496035;28;20505;-38
2021/12/06 14:13:40;;;;;;;18.15;8.45;;;4.10;99.90;;;;;;12493173;28;20647;-39
2021/12/06 14:19:44;;;;;;;19.58;9.10;;;4.40;99.90;;;;;;12493141;28;20552;-40
2021/12/06 14:25:50;;;;;;;20.05;9.60;;;4.20;99.90;;;;;;12492840;28;20557;-39
2021/12/06 14:31:55;;;;;;;19.95;9.27;;;4.00;99.90;;;;;;12492500;28;20098;-39
2021/12/06 14:37:58;;;;;;;;;;;3.90;99.90;;;;;;12495242;28;20107;-40
2021/12/06 14:44:00;;;;;;;20.58;9.43;;;3.80;99.90;;;;;;12493736;28;19936;-37
2021/12/06 14:50:32;;;;;;;22.45;10.75;;;3.60;99.90;;;;;;12496776;28;20056;-39
2021/12/06 14:56:50;;;;;;;22.25;11.25;;;3.30;99.90;;;;;;12495176;28;20094;-39
2021/12/06 15:02:54;;;;;;;25.88;12.18;;;3.10;99.90;;;;;;12490867;28;20561;-39
2021/12/06 15:08:57;;;;;;;26.05;13.13;;;2.90;99.90;;;;;;12491554;28;20475;-38
2021/12/06 15:14:59;;;;;;;26.55;12.32;;;2.80;99.90;;;;;;12496129;28;20144;-39
2021/12/06 15:21:01;;;;;;;29.70;13.68;;;2.70;99.90;;;;;;12493402;28;20048;-39
2021/12/06 15:27:07;;;;;;;26.58;12.48;;;2.60;99.90;;;;;;12493991;28;20087;-38
2021/12/06 15:33:13;;;;;;;24.65;12.77;;;2.60;99.90;;;;;;12490867;28;20564;-38
2021/12/06 15:39:15;;;;;;;28.27;12.80;;;2.60;99.90;;;;;;12495000;28;20474;-39
2021/12/06 15:45:17;;;;;;;24.65;11.95;;;2.50;99.90;;;;;;12495949;28;20049;-40
2021/12/06 15:51:23;;;;;;;22.02;11.90;;;2.60;99.90;;;;;;12495721;28;20047;-39
2021/12/06 15:57:45;;;;;;;25.55;12.85;;;2.70;99.90;;;;;;12496662;28;20047;-38
2021/12/06 16:03:48;;;;;;;20.35;12.18;;;2.70;99.90;;;;;;12499915;28;20074;-38
2021/12/06 16:09:54;;;;;;;21.83;11.80;;;2.70;99.90;;;;;;12497393;28;20052;-38
2021/12/06 16:15:58;;;;;;;21.73;11.82;;;2.70;99.90;;;;;;12491554;28;20140;-38
2021/12/06 16:22:01;;;;;;;18.90;10.75;;;2.70;99.90;;;;;;12492615;28;20080;-38
2021/12/06 16:28:05;;;;;;;25.35;11.93;;;2.70;99.90;;;;;;12494562;28;20556;-39
2021/12/06 16:34:13;;;;;;;24.77;12.50;;;2.80;99.90;;;;;;12493687;28;20398;-39
2021/12/06 16:40:18;;;;;;;25.92;13.13;;;2.80;99.90;;;;;;12490739;28;20055;-37
2021/12/06 16:46:50;;;;;;;21.98;11.52;;;2.80;99.90;;;;;;12504457;23;20041;-88
2021/12/06 16:53:04;;;;;;;20.50;11.90;;;2.90;99.90;;;;;;12409156;28;20562;-87
2021/12/06 16:59:15;;;;;;;25.45;12.48;;;2.90;99.90;;;;;;12427667;28;20053;-87
2021/12/06 17:05:17;;;;;;;26.35;13.23;;;2.90;99.90;;;;;;12416460;28;20128;-87
2021/12/06 17:11:25;;;;;;;21.23;12.73;;;2.90;99.90;;;;;;12412004;28;20567;-88
2021/12/06 17:17:46;;;;;;;25.40;12.88;;;2.90;99.90;;;;;;12425446;28;20056;-88
2021/12/06 17:23:50;;;;;;;25.73;13.07;;;2.90;99.90;;;;;;12406275;28;20302;-87
2021/12/06 17:29:54;;;;;;;21.25;13.18;;;2.90;99.90;;;;;;12485823;28;20049;-88
2021/12/06 17:36:00;;;;;;;23.23;12.75;;;2.90;99.90;;;;;;12470598;28;20055;-90
2021/12/06 17:42:03;;;;;;;22.98;13.32;;;2.90;99.90;;;;;;12468930;28;20053;-90
2021/12/06 17:48:05;;;;;;;21.27;13.48;;;2.80;99.90;;;;;;12488072;28;20081;-89
2021/12/06 17:54:11;;;;;;;24.23;13.10;;;2.80;99.90;;;;;;12488960;28;20063;-89
2021/12/06 18:00:13;;;;;;;23.85;12.75;;;2.80;99.90;;;;;;12470823;28;20044;-89
2021/12/06 18:06:17;;;;;;;23.35;12.57;;;2.70;99.90;;;;;;12483049;28;20091;-88
2021/12/06 18:12:19;;;;;;;20.65;12.15;;;2.70;99.90;;;;;;12472053;28;20140;-88
2021/12/06 18:18:22;;;;;;;22.60;12.63;;;2.70;99.90;;;;;;12474898;28;20135;-88
2021/12/06 18:24:25;;;;;;;26.70;13.27;;;2.60;99.90;;;;;;12470040;28;20180;-89
2021/12/06 18:30:27;;;;;;;24.95;12.90;;;2.60;99.90;;;;;;12472420;28;20072;-89
2021/12/06 18:36:32;;;;;;;23.55;12.18;;;2.50;99.90;;;;;;12471514;28;20504;-89
2021/12/06 18:42:40;;;;;;;25.70;12.52;;;2.40;99.90;;;;;;12463931;28;20128;-88
2021/12/06 18:48:44;;;;;;;25.27;12.20;;;2.40;99.90;;;;;;12479060;28;20517;-89
2021/12/06 18:54:47;;;;;;;22.25;11.95;;;2.40;99.90;;;;;;12479759;28;20131;-89
2021/12/06 19:00:51;;;;;;;22.75;11.70;;;2.40;99.90;;;;;;12477455;28;20056;-89
2021/12/06 19:06:56;;;;;;;24.00;12.77;;;2.50;99.90;;;;;;12466020;28;20621;-88
2021/12/06 19:12:58;;;;;;;17.98;11.75;;;2.40;99.90;;;;;;12459256;28;20049;-89
2021/12/06 19:19:00;;;;;;;22.83;11.98;;;2.40;99.90;;;;;;12477715;28;20048;-90
2021/12/06 19:25:07;;;;;;;21.60;11.55;;;2.40;99.90;;;;;;12467500;28;20051;-89
2021/12/06 19:31:10;;;;;;;24.52;12.57;;;2.40;99.90;;;;;;12466726;28;20050;-89
2021/12/06 19:37:14;;;;;;;24.90;12.15;;;2.30;99.90;;;;;;12475868;28;20053;-90
2021/12/06 19:43:17;;;;;;;21.35;11.63;;;2.30;99.90;;;;;;12477764;28;20332;-88
2021/12/06 19:49:20;;;;;;;21.25;11.32;;;2.40;99.90;;;;;;12469320;28;20440;-89
2021/12/06 19:55:22;;;;;;;21.60;11.10;;;2.40;99.90;;;;;;12464274;28;20141;-89
2021/12/06 20:01:26;;;;;;;21.45;11.85;;;2.30;99.90;;;;;;12459853;28;20049;-89
2021/12/06 20:07:29;;;;;;;20.75;12.10;;;2.20;99.90;;;;;;12479899;28;20056;-89
2021/12/06 20:13:34;;;;;;;22.13;11.82;;;2.20;99.90;;;;;;12466629;28;20069;-89
2021/12/06 20:19:36;;;;;;;20.55;11.60;;;2.10;99.90;;;;;;12473933;28;20064;-89
2021/12/06 20:25:39;;;;;;;22.58;11.15;;;2.00;99.90;;;;;;12461528;28;20133;-90
2021/12/06 20:31:41;;;;;;;19.33;11.63;;;2.10;99.90;;;;;;12461790;28;20073;-90
2021/12/06 20:37:43;;;;;;;21.35;12.05;;;2.10;99.90;;;;;;12463900;28;20369;-88
2021/12/06 20:43:46;;;;;;;21.25;11.80;;;2.20;99.90;;;;;;12461424;28;20470;-87
2021/12/06 20:49:48;;;;;;;21.48;12.15;;;2.30;99.90;;;;;;12457626;28;20072;-88
2021/12/06 20:55:50;;;;;;;22.50;12.10;;;2.40;99.90;;;;;;12460415;28;20052;-88
2021/12/06 21:01:54;;;;;;;17.75;11.77;;;2.50;99.90;;;;;;12456822;28;20135;-89
2021/12/06 21:07:56;;;;;;;19.27;12.53;;;2.50;99.90;;;;;;12465306;28;20050;-88
2021/12/06 21:14:10;;;;;;;20.48;12.30;;;2.60;99.90;;;;;;12471117;28;20610;-89
2021/12/06 21:20:12;;;;;;;18.70;11.20;;;2.60;99.90;;;;;;12460528;28;20701;-86
2021/12/06 21:26:15;;;;;;;21.40;13.82;;;2.60;99.90;;;;;;12476301;28;20469;-89
2021/12/06 21:32:17;;;;;;;18.20;11.68;;;2.60;99.90;;;;;;12461424;28;20041;-89
2021/12/06 21:38:20;;;;;;;18.88;11.95;;;2.50;99.90;;;;;;12457326;28;20448;-89
2021/12/06 21:44:22;;;;;;;16.65;11.18;;;2.60;99.90;;;;;;12458157;28;20048;-88
2021/12/06 21:50:27;;;;;;;18.05;11.70;;;2.60;99.90;;;;;;12457036;28;20046;-89
2021/12/06 21:56:29;;;;;;;21.48;11.68;;;2.60;99.90;;;;;;12474332;28;20107;-89
2021/12/06 22:02:31;;;;;;;20.10;13.10;;;2.60;99.90;;;;;;12472300;28;20045;-90
2021/12/06 22:08:33;;;;;;;18.25;13.07;;;2.70;99.90;;;;;;12456447;28;20051;-88
2021/12/06 22:14:36;;;;;;;22.90;13.15;;;2.60;99.90;;;;;;12477256;28;20142;-89
2021/12/06 22:20:38;;;;;;;20.13;14.00;;;2.60;99.90;;;;;;12480613;28;20289;-88
2021/12/06 22:26:40;;;;;;;19.67;14.27;;;2.50;99.90;;;;;;12464486;28;20064;-86
2021/12/06 22:32:43;;;;;;;21.40;13.55;;;2.50;99.90;;;;;;12464678;28;20045;-89
2021/12/06 22:38:46;;;;;;;21.07;14.47;;;2.40;99.90;;;;;;12491208;28;20152;-87
2021/12/06 22:44:48;;;;;;;20.92;12.82;;;2.40;99.90;;;;;;12491832;28;20440;-91
2021/12/06 22:50:51;;;;;;;18.98;13.32;;;2.50;99.90;;;;;;12479555;28;20081;-84
2021/12/06 22:56:53;;;;;;;19.67;13.25;;;2.50;99.90;;;;;;12463606;28;20063;-86
2021/12/06 23:02:57;;;;;;;20.77;13.30;;;2.50;99.90;;;;;;12478362;28;20060;-87
2021/12/06 23:09:00;;;;;;;21.40;14.00;;;2.50;99.90;;;;;;12461913;28;20455;-89
2021/12/06 23:15:03;;;;;;;23.08;14.48;;;2.50;99.90;;;;;;12461786;28;20047;-89
2021/12/06 23:21:05;;;;;;;21.90;14.23;;;2.50;99.90;;;;;;12479785;28;20421;-88
2021/12/06 23:27:07;;;;;;;23.08;14.30;;;2.40;99.90;;;;;;12465342;28;20102;-88
2021/12/06 23:33:09;;;;;;;19.92;13.18;;;2.50;99.90;;;;;;12458766;28;20055;-87
2021/12/06 23:39:48;;;;;;;21.20;13.27;;;2.40;99.90;;;;;;12462299;28;20445;-86
2021/12/06 23:52:12;;;;;;;17.92;11.98;;;2.50;99.90;;;;;;12476885;28;20047;-86
2021/12/06 23:58:14;;;;;;;19.35;11.50;;;2.50;99.90;;;;;;12465468;28;20045;-89
